Time;durP1;ratioP1;P1;durP2;ratioP2;P2;SDS_P1;SDS_P2;PMS_P1;PMS_P2;Temp;Humidity;BMP_temperature;BMP_pressure;BME280_temperature;BME280_humidity;BME280_pressure;Samples;Min_cycle;Max_cycle;Signal;HPM_P1;HPM_P2
2021/11/06 00:03:02;;;;;;;3.85;2.92;;;11.30;99.90;;;;;;5061305;28;20047;-71
2021/11/06 00:06:06;;;;;;;7.22;1.88;;;11.30;99.90;;;;;;5067748;28;20395;-71
2021/11/06 00:09:10;;;;;;;3.22;1.77;;;11.40;99.90;;;;;;5060517;28;20048;-71
2021/11/06 00:12:16;;;;;;;4.95;2.30;;;11.30;99.90;;;;;;5055674;28;20051;-72
2021/11/06 00:15:20;;;;;;;4.15;1.83;;;11.20;99.90;;;;;;5057276;28;20044;-70
2021/11/06 00:18:24;;;;;;;7.10;2.75;;;11.30;99.90;;;;;;5054629;28;20044;-71
2021/11/06 00:21:28;;;;;;;5.38;2.25;;;11.30;99.90;;;;;;5064485;28;20052;-71
2021/11/06 00:24:32;;;;;;;4.97;2.42;;;11.20;99.90;;;;;;5058260;28;20282;-72
2021/11/06 00:27:37;;;;;;;5.53;2.20;;;11.10;99.90;;;;;;5058963;28;20040;-72
2021/11/06 00:30:41;;;;;;;6.88;2.92;;;10.90;99.90;;;;;;5062663;28;20039;-70
2021/11/06 00:33:45;;;;;;;5.85;2.50;;;10.80;99.90;;;;;;5059201;28;20044;-71
2021/11/06 00:36:48;;;;;;;5.90;3.22;;;10.70;99.90;;;;;;5059143;28;20065;-71
2021/11/06 00:39:53;;;;;;;6.13;2.95;;;10.70;99.90;;;;;;5067615;28;20040;-71
2021/11/06 00:42:58;;;;;;;5.50;2.65;;;10.70;99.90;;;;;;5061427;28;20051;-71
2021/11/06 00:46:02;;;;;;;6.20;3.13;;;10.70;99.90;;;;;;5057851;28;20036;-71
2021/11/06 00:49:06;;;;;;;10.63;2.88;;;10.80;99.90;;;;;;5054566;28;20165;-71
2021/11/06 00:52:10;;;;;;;3.35;1.67;;;10.80;99.90;;;;;;5060200;28;20541;-71
2021/11/06 00:55:17;;;;;;;3.28;1.50;;;10.80;99.90;;;;;;5068044;28;20047;-70
2021/11/06 00:58:20;;;;;;;3.35;1.40;;;11.00;99.90;;;;;;5059975;28;20039;-70
2021/11/06 01:01:24;;;;;;;2.05;1.20;;;11.30;99.90;;;;;;5056975;28;20039;-71
2021/11/06 01:04:28;;;;;;;2.67;1.40;;;11.50;99.90;;;;;;5058090;28;20056;-70
2021/11/06 01:07:32;;;;;;;4.03;1.63;;;11.50;99.90;;;;;;5065298;28;20043;-71
2021/11/06 01:10:36;;;;;;;2.08;1.42;;;11.60;99.90;;;;;;5061806;28;20040;-71
2021/11/06 01:13:41;;;;;;;4.28;1.77;;;11.60;99.90;;;;;;5061580;28;20051;-70
2021/11/06 01:16:45;;;;;;;3.60;2.50;;;11.60;99.90;;;;;;5068555;28;20503;-70
2021/11/06 01:19:49;;;;;;;5.00;2.42;;;11.50;99.90;;;;;;5061966;28;20048;-71
2021/11/06 01:22:54;;;;;;;6.35;2.47;;;11.40;99.90;;;;;;5069084;28;20387;-72
2021/11/06 01:25:58;;;;;;;7.32;3.50;;;11.30;99.90;;;;;;5064678;28;20028;-71
2021/11/06 01:29:03;;;;;;;5.18;2.42;;;11.20;99.90;;;;;;5059155;28;20531;-70
2021/11/06 01:32:08;;;;;;;4.65;3.25;;;11.20;99.90;;;;;;5070902;28;20047;-71
2021/11/06 01:35:13;;;;;;;8.65;2.83;;;11.20;99.90;;;;;;5064957;28;20047;-72
2021/11/06 01:38:18;;;;;;;6.47;2.90;;;11.20;99.90;;;;;;5060990;28;20048;-72
2021/11/06 01:41:22;;;;;;;7.85;3.90;;;11.20;99.90;;;;;;5061236;28;20514;-71
2021/11/06 01:44:27;;;;;;;6.75;3.90;;;11.10;99.90;;;;;;5060247;28;20402;-71
2021/11/06 01:47:31;;;;;;;4.28;1.80;;;10.90;99.90;;;;;;5063889;28;20039;-71
2021/11/06 01:50:36;;;;;;;6.93;3.60;;;10.90;99.90;;;;;;5060937;28;20502;-72
2021/11/06 01:53:40;;;;;;;8.05;3.95;;;10.90;99.90;;;;;;5061273;28;20048;-71
2021/11/06 01:56:46;;;;;;;8.25;4.18;;;10.80;99.90;;;;;;5062566;28;20486;-70
2021/11/06 01:59:51;;;;;;;11.50;3.97;;;10.90;99.90;;;;;;5058511;28;20044;-71
2021/11/06 02:02:56;;;;;;;9.93;4.10;;;10.90;99.90;;;;;;5070259;28;20051;-71
2021/11/06 02:06:01;;;;;;;10.77;3.50;;;10.90;99.90;;;;;;5064082;28;20039;-71
2021/11/06 02:09:06;;;;;;;4.90;2.80;;;10.90;99.90;;;;;;5060381;28;20043;-71
2021/11/06 02:12:10;;;;;;;6.97;3.35;;;10.90;99.90;;;;;;5060279;28;20044;-71
2021/11/06 02:15:17;;;;;;;8.82;3.75;;;11.00;99.90;;;;;;5058599;28;20047;-72
2021/11/06 02:18:21;;;;;;;6.03;3.08;;;11.00;99.90;;;;;;5060658;28;20396;-71
2021/11/06 02:21:25;;;;;;;3.97;2.30;;;11.10;99.90;;;;;;5060462;28;20048;-71
2021/11/06 02:24:29;;;;;;;6.00;3.08;;;11.00;99.90;;;;;;5057779;28;20379;-71
2021/11/06 02:27:34;;;;;;;10.10;2.88;;;11.00;99.90;;;;;;5064014;28;20040;-71
2021/11/06 02:30:38;;;;;;;5.13;2.50;;;11.00;99.90;;;;;;5065457;28;20047;-71
2021/11/06 02:33:42;;;;;;;4.90;2.33;;;11.00;99.90;;;;;;5060011;28;20052;-71
2021/11/06 02:36:47;;;;;;;5.63;2.10;;;11.10;99.90;;;;;;5066021;28;20056;-71
2021/11/06 02:39:51;;;;;;;2.88;2.03;;;11.10;99.90;;;;;;5060209;28;20395;-71
2021/11/06 02:42:56;;;;;;;6.40;2.92;;;11.10;99.90;;;;;;5060551;28;20043;-71
2021/11/06 02:46:00;;;;;;;4.43;2.17;;;11.10;99.90;;;;;;5070241;28;20493;-72
2021/11/06 02:49:05;;;;;;;3.60;2.00;;;11.10;99.90;;;;;;5062649;28;20044;-72
2021/11/06 02:52:09;;;;;;;4.43;1.70;;;11.10;99.90;;;;;;5069845;28;20040;-71
2021/11/06 02:55:14;;;;;;;1.88;1.40;;;11.10;99.90;;;;;;5059986;28;20464;-71
2021/11/06 02:58:18;;;;;;;2.65;1.40;;;11.20;99.90;;;;;;5059709;28;20063;-72
2021/11/06 03:01:23;;;;;;;5.40;2.00;;;11.20;99.90;;;;;;5065433;28;20047;-72
2021/11/06 03:04:27;;;;;;;2.58;1.50;;;11.20;99.90;;;;;;5066200;28;20072;-71
2021/11/06 03:07:31;;;;;;;3.45;1.45;;;11.30;99.90;;;;;;5057285;28;20036;-72
2021/11/06 03:10:36;;;;;;;1.95;1.30;;;11.30;99.90;;;;;;5059443;28;20047;-71
2021/11/06 03:13:41;;;;;;;4.45;1.15;;;11.20;99.90;;;;;;5064073;28;20047;-71
2021/11/06 03:16:45;;;;;;;2.70;0.93;;;11.30;99.90;;;;;;5066571;28;20111;-71
2021/11/06 03:19:49;;;;;;;3.08;1.00;;;11.30;99.90;;;;;;5069454;28;20068;-72
2021/11/06 03:22:58;;;;;;;4.70;1.30;;;11.40;99.90;;;;;;5067644;28;20059;-72
2021/11/06 03:26:02;;;;;;;7.82;1.65;;;11.40;99.90;;;;;;5062232;28;20502;-71
2021/11/06 03:29:07;;;;;;;2.63;1.05;;;11.30;99.90;;;;;;5063934;28;20499;-71
2021/11/06 03:32:11;;;;;;;2.17;1.38;;;11.30;99.90;;;;;;5059347;28;20044;-71
2021/11/06 03:35:15;;;;;;;2.85;1.05;;;11.30;99.90;;;;;;5050883;28;20048;-70
2021/11/06 03:38:20;;;;;;;3.85;1.40;;;11.60;99.90;;;;;;5060199;28;20043;-71
2021/11/06 03:41:25;;;;;;;1.52;0.90;;;11.80;99.90;;;;;;5064326;28;20055;-71
2021/11/06 03:44:29;;;;;;;3.88;1.50;;;11.80;99.90;;;;;;5061591;28;20048;-71
2021/11/06 03:47:34;;;;;;;2.28;0.75;;;12.00;99.90;;;;;;5057948;28;20043;-71
2021/11/06 03:50:38;;;;;;;1.85;0.70;;;12.00;99.90;;;;;;5058862;28;20388;-70
2021/11/06 03:53:42;;;;;;;2.70;0.65;;;12.10;99.90;;;;;;5066179;28;20055;-71
2021/11/06 03:56:46;;;;;;;1.35;0.70;;;12.10;99.90;;;;;;5065074;28;20410;-71
2021/11/06 03:59:50;;;;;;;0.80;0.60;;;12.40;99.90;;;;;;5067607;28;20503;-71
2021/11/06 04:02:54;;;;;;;0.68;0.50;;;12.50;99.90;;;;;;5063875;28;20044;-71
2021/11/06 04:05:58;;;;;;;0.70;0.50;;;12.50;99.90;;;;;;5065101;28;20043;-71
2021/11/06 04:09:05;;;;;;;0.93;0.57;;;12.50;99.90;;;;;;5061184;28;20048;-71
2021/11/06 04:12:09;;;;;;;0.80;0.30;;;12.40;99.90;;;;;;5061921;28;20040;-70
2021/11/06 04:15:15;;;;;;;0.68;0.50;;;12.40;99.90;;;;;;5062356;28;20039;-71
2021/11/06 04:18:19;;;;;;;0.95;0.70;;;12.40;99.90;;;;;;5060967;28;20391;-71
2021/11/06 04:21:23;;;;;;;1.10;0.68;;;12.30;99.90;;;;;;5057573;28;20402;-72
2021/11/06 04:24:27;;;;;;;0.75;0.55;;;12.20;99.90;;;;;;5064398;28;20031;-71
2021/11/06 04:27:32;;;;;;;0.52;0.40;;;12.20;99.90;;;;;;5058319;28;20044;-70
2021/11/06 04:30:36;;;;;;;0.60;0.50;;;12.30;99.90;;;;;;5062010;28;20044;-70
2021/11/06 04:33:42;;;;;;;1.38;0.60;;;12.30;99.90;;;;;;5061357;28;20068;-71
2021/11/06 04:36:46;;;;;;;1.00;0.32;;;12.40;99.90;;;;;;5058954;28;20418;-70
2021/11/06 04:39:50;;;;;;;1.17;0.60;;;12.50;99.90;;;;;;5065274;28;20047;-70
2021/11/06 04:42:54;;;;;;;1.02;0.30;;;12.60;99.90;;;;;;5059845;28;20151;-70
2021/11/06 04:45:59;;;;;;;0.57;0.50;;;12.50;99.90;;;;;;5058810;28;20052;-71
2021/11/06 04:49:03;;;;;;;3.47;0.60;;;12.50;99.90;;;;;;5060172;28;20044;-70
2021/11/06 04:52:07;;;;;;;1.83;0.60;;;12.40;99.90;;;;;;5065113;28;20036;-70
2021/11/06 04:55:16;;;;;;;1.08;0.43;;;12.40;99.90;;;;;;5059825;28;20036;-70
2021/11/06 04:58:19;;;;;;;1.40;0.57;;;12.40;99.90;;;;;;5056191;28;20052;-70
2021/11/06 05:01:23;;;;;;;1.42;0.60;;;12.40;99.90;;;;;;5062950;28;20061;-70
2021/11/06 05:04:28;;;;;;;2.65;0.70;;;12.40;99.90;;;;;;5057844;28;20044;-70
2021/11/06 05:07:32;;;;;;;2.88;0.63;;;12.30;99.90;;;;;;5058287;28;20048;-71
2021/11/06 05:10:36;;;;;;;1.42;0.90;;;12.30;99.90;;;;;;5054436;28;20380;-70
2021/11/06 05:13:40;;;;;;;0.82;0.70;;;12.30;99.90;;;;;;5058163;28;20040;-70
2021/11/06 05:16:43;;;;;;;4.97;1.15;;;12.30;99.90;;;;;;5057100;28;20040;-71
2021/11/06 05:19:48;;;;;;;3.03;0.90;;;12.40;99.90;;;;;;5067912;28;20048;-71
2021/11/06 05:22:52;;;;;;;2.78;0.85;;;12.40;99.90;;;;;;5059423;28;20056;-71
2021/11/06 05:25:56;;;;;;;2.40;0.98;;;12.40;99.90;;;;;;5059470;28;20108;-70
2021/11/06 05:29:03;;;;;;;3.85;0.60;;;12.40;99.90;;;;;;5058754;28;20060;-69
2021/11/06 05:32:08;;;;;;;3.15;0.57;;;12.40;99.90;;;;;;5056838;28;20498;-70
2021/11/06 05:35:13;;;;;;;3.35;0.70;;;12.40;99.90;;;;;;5059072;28;20044;-70
2021/11/06 05:38:18;;;;;;;2.78;0.60;;;12.40;99.90;;;;;;5056200;28;20501;-71
2021/11/06 05:41:22;;;;;;;1.83;0.60;;;12.40;99.90;;;;;;5060816;28;20032;-71
2021/11/06 05:44:26;;;;;;;1.30;0.57;;;12.40;99.90;;;;;;5061004;28;20044;-72
2021/11/06 05:47:30;;;;;;;2.28;0.70;;;12.40;99.90;;;;;;5057441;28;20498;-71
2021/11/06 05:50:34;;;;;;;3.85;0.73;;;12.40;99.90;;;;;;5059352;28;20056;-71
2021/11/06 05:53:38;;;;;;;1.55;0.70;;;12.30;99.90;;;;;;5058842;28;20044;-70
2021/11/06 05:56:42;;;;;;;2.63;0.80;;;12.30;99.90;;;;;;5061217;28;20040;-70
2021/11/06 05:59:46;;;;;;;1.50;0.77;;;12.40;99.90;;;;;;5061973;28;20048;-70
2021/11/06 06:02:50;;;;;;;1.92;0.88;;;12.40;99.90;;;;;;5069134;28;20358;-71
2021/11/06 06:05:54;;;;;;;1.70;0.50;;;12.40;99.90;;;;;;5061658;28;20111;-71
2021/11/06 06:08:58;;;;;;;2.67;0.70;;;12.30;99.90;;;;;;5063326;28;20044;-71
2021/11/06 06:12:02;;;;;;;2.13;0.68;;;12.40;99.90;;;;;;5061781;28;20387;-71
2021/11/06 06:15:07;;;;;;;2.97;1.20;;;12.30;99.90;;;;;;5064344;28;20509;-71
2021/11/06 06:18:11;;;;;;;0.82;0.55;;;12.20;99.90;;;;;;5061240;28;20040;-70
2021/11/06 06:21:15;;;;;;;1.55;0.70;;;12.20;99.90;;;;;;5065212;28;20035;-70
2021/11/06 06:24:19;;;;;;;3.92;0.68;;;12.10;99.90;;;;;;5064455;28;20035;-69
2021/11/06 06:27:24;;;;;;;1.08;0.68;;;12.10;99.90;;;;;;5060727;28;20044;-72
2021/11/06 06:30:28;;;;;;;1.30;0.63;;;12.20;99.90;;;;;;5060488;28;20423;-71
2021/11/06 06:33:32;;;;;;;0.60;0.60;;;12.20;99.90;;;;;;5060333;28;20063;-71
2021/11/06 06:36:36;;;;;;;3.53;0.68;;;12.20;99.90;;;;;;5064245;28;20039;-71
2021/11/06 06:39:40;;;;;;;4.05;0.80;;;12.20;99.90;;;;;;5059673;28;20044;-70
2021/11/06 06:42:44;;;;;;;2.20;0.90;;;12.10;99.90;;;;;;5060675;28;20032;-71
2021/11/06 06:45:49;;;;;;;2.35;0.90;;;12.20;99.90;;;;;;5060457;28;20118;-71
2021/11/06 06:48:53;;;;;;;2.42;0.90;;;12.20;99.90;;;;;;5065758;28;20043;-70
2021/11/06 06:51:57;;;;;;;3.53;1.10;;;12.30;99.90;;;;;;5070245;28;20055;-71
2021/11/06 06:55:02;;;;;;;5.40;1.05;;;12.30;99.90;;;;;;5057808;28;20079;-71
2021/11/06 06:58:06;;;;;;;2.92;1.08;;;12.40;99.90;;;;;;5056966;28;20040;-71
2021/11/06 07:01:10;;;;;;;3.05;0.90;;;12.50;99.90;;;;;;5060017;28;20495;-71
2021/11/06 07:04:15;;;;;;;6.00;1.83;;;12.60;99.90;;;;;;5059668;28;20033;-71
2021/11/06 07:07:19;;;;;;;4.15;1.00;;;12.60;99.90;;;;;;5065236;28;20035;-71
2021/11/06 07:10:24;;;;;;;4.90;1.08;;;12.60;99.90;;;;;;5057051;28;20375;-71
2021/11/06 07:13:31;;;;;;;3.40;1.15;;;12.70;99.90;;;;;;5066018;28;20532;-71
2021/11/06 07:16:35;;;;;;;8.07;1.30;;;13.00;99.90;;;;;;5058044;28;20509;-72
2021/11/06 07:19:39;;;;;;;7.63;1.20;;;13.30;99.90;;;;;;5059168;28;20043;-70
2021/11/06 07:22:43;;;;;;;4.80;1.00;;;13.30;99.90;;;;;;5051759;28;20051;-69
2021/11/06 07:25:47;;;;;;;3.38;1.05;;;13.40;99.90;;;;;;5051649;28;20040;-71
2021/11/06 07:28:52;;;;;;;1.95;0.93;;;13.60;99.90;;;;;;5051334;28;20052;-72
2021/11/06 07:31:56;;;;;;;3.53;1.08;;;14.00;99.90;;;;;;5051505;28;20047;-72
2021/11/06 07:35:00;;;;;;;2.30;1.10;;;14.30;99.90;;;;;;5051402;28;20040;-72
2021/11/06 07:38:04;;;;;;;2.83;1.20;;;14.30;99.90;;;;;;5051047;28;20052;-72
2021/11/06 07:41:08;;;;;;;4.95;1.30;;;14.10;99.90;;;;;;5050779;28;20447;-71
2021/11/06 07:44:12;;;;;;;5.05;1.42;;;14.30;99.90;;;;;;5051507;28;20044;-72
2021/11/06 07:47:16;;;;;;;3.20;1.02;;;14.10;99.90;;;;;;5050042;28;20051;-71
2021/11/06 07:50:20;;;;;;;4.25;1.20;;;13.90;99.90;;;;;;5051176;28;20043;-71
2021/11/06 07:53:25;;;;;;;8.00;1.20;;;13.70;99.90;;;;;;5051056;28;20044;-71
2021/11/06 07:56:29;;;;;;;6.93;1.88;;;13.90;99.90;;;;;;5050959;28;20056;-70
2021/11/06 07:59:33;;;;;;;1.98;1.05;;;13.90;99.90;;;;;;5051013;28;20076;-68
2021/11/06 08:02:38;;;;;;;4.25;1.20;;;14.10;99.90;;;;;;5050392;28;20056;-71
2021/11/06 08:05:44;;;;;;;8.50;1.38;;;14.50;99.90;;;;;;5050928;28;20108;-72
2021/11/06 08:08:48;;;;;;;2.67;1.17;;;15.20;99.90;;;;;;5050696;28;20056;-71
2021/11/06 08:11:53;;;;;;;5.32;2.15;;;15.80;99.90;;;;;;5050688;28;20497;-72
2021/11/06 08:14:57;;;;;;;2.42;0.98;;;17.40;99.90;;;;;;5050788;28;20497;-71
2021/11/06 08:18:01;;;;;;;3.30;1.10;;;18.40;99.90;;;;;;5050328;28;20044;-72
2021/11/06 08:21:06;;;;;;;3.35;1.15;;;20.20;99.20;;;;;;5050370;28;20062;-72
2021/11/06 08:24:10;;;;;;;2.65;1.00;;;19.60;98.10;;;;;;5050545;28;20053;-72
2021/11/06 08:27:14;;;;;;;2.03;1.00;;;17.60;99.70;;;;;;5050461;28;20052;-72
2021/11/06 08:30:20;;;;;;;4.13;1.27;;;16.70;99.90;;;;;;5050354;28;20493;-72
2021/11/06 08:33:24;;;;;;;2.75;1.30;;;16.00;99.90;;;;;;5049573;28;20048;-71
2021/11/06 08:36:28;;;;;;;3.38;1.23;;;15.80;99.90;;;;;;5058754;28;20043;-72
2021/11/06 08:39:32;;;;;;;2.80;0.98;;;17.80;99.90;;;;;;5060874;28;20039;-72
2021/11/06 08:42:37;;;;;;;2.08;1.25;;;22.00;97.90;;;;;;5050960;28;20521;-72
2021/11/06 08:45:42;;;;;;;6.47;0.93;;;22.90;93.50;;;;;;5051267;28;20051;-73
2021/11/06 08:48:46;;;;;;;4.28;0.90;;;23.30;95.40;;;;;;5050254;28;20049;-73
2021/11/06 08:51:52;;;;;;;2.47;0.75;;;26.60;92.70;;;;;;5050487;28;20049;-72
2021/11/06 08:54:56;;;;;;;2.20;0.88;;;27.70;86.30;;;;;;5050147;28;20048;-72
2021/11/06 08:58:01;;;;;;;3.63;1.00;;;28.00;82.00;;;;;;5050105;28;20044;-72
2021/11/06 09:01:05;;;;;;;3.05;1.40;;;27.00;82.30;;;;;;5049890;28;20067;-73
2021/11/06 09:04:09;;;;;;;1.77;0.90;;;25.30;83.80;;;;;;5050088;28;20048;-72
2021/11/06 09:07:14;;;;;;;2.88;0.90;;;25.20;83.20;;;;;;5053639;28;20498;-73
2021/11/06 09:10:19;;;;;;;1.98;0.93;;;25.40;84.00;;;;;;5049828;28;20044;-73
2021/11/06 09:13:24;;;;;;;2.28;1.10;;;24.40;84.70;;;;;;5050261;28;20064;-73
2021/11/06 09:16:28;;;;;;;3.38;1.10;;;24.10;83.00;;;;;;5050020;28;20511;-72
2021/11/06 09:19:32;;;;;;;4.88;2.30;;;22.20;87.40;;;;;;5050094;28;20044;-73
2021/11/06 09:22:37;;;;;;;2.97;1.10;;;22.60;87.10;;;;;;5050064;28;20064;-72
2021/11/06 09:25:42;;;;;;;3.33;1.25;;;23.50;85.40;;;;;;5049754;28;20481;-73
2021/11/06 09:28:48;;;;;;;6.78;3.40;;;23.70;85.20;;;;;;5051829;28;20044;-72
2021/11/06 09:31:52;;;;;;;11.80;5.25;;;24.50;84.00;;;;;;5053698;28;20056;-72
2021/11/06 09:34:56;;;;;;;5.13;2.45;;;24.20;85.00;;;;;;5053410;28;20048;-72
2021/11/06 09:38:00;;;;;;;3.47;1.23;;;24.80;83.60;;;;;;5053381;28;20064;-72
2021/11/06 09:41:06;;;;;;;5.20;2.05;;;22.70;86.20;;;;;;5053586;28;20052;-73
2021/11/06 09:44:10;;;;;;;7.07;2.53;;;23.40;86.10;;;;;;5053427;28;20388;-72
2021/11/06 09:47:15;;;;;;;3.78;1.00;;;23.40;85.90;;;;;;5053557;28;20498;-72
2021/11/06 09:50:21;;;;;;;5.68;2.15;;;22.90;86.90;;;;;;5053054;28;20040;-72
2021/11/06 09:53:31;;;;;;;2.85;1.33;;;23.80;85.60;;;;;;5053223;28;20445;-72
2021/11/06 09:56:35;;;;;;;3.80;1.95;;;24.20;85.40;;;;;;5053053;28;20506;-72
2021/11/06 09:59:40;;;;;;;2.80;1.08;;;24.30;84.20;;;;;;5052809;28;20405;-74
2021/11/06 10:02:44;;;;;;;4.05;1.85;;;25.50;83.30;;;;;;5053147;28;20395;-73
2021/11/06 10:05:56;;;;;;;4.75;1.10;;;26.40;81.70;;;;;;5053592;28;20052;-72
2021/11/06 10:09:00;;;;;;;3.80;1.02;;;25.90;81.40;;;;;;5052910;28;20036;-72
2021/11/06 10:12:06;;;;;;;5.75;1.60;;;25.60;81.50;;;;;;5053101;28;20044;-71
2021/11/06 10:15:11;;;;;;;6.53;1.80;;;25.40;81.80;;;;;;5053254;28;20044;-71
2021/11/06 10:18:17;;;;;;;3.40;1.52;;;24.20;83.40;;;;;;5052721;28;20047;-71
2021/11/06 10:21:26;;;;;;;3.25;1.63;;;24.30;83.40;;;;;;5052722;28;20044;-71
2021/11/06 10:24:59;;;;;;;3.42;1.27;;;23.60;84.90;;;;;;5052558;28;20036;-72
2021/11/06 10:28:09;;;;;;;3.72;1.40;;;24.40;84.00;;;;;;5052510;28;20043;-71
2021/11/06 10:31:14;;;;;;;2.67;1.35;;;23.20;84.60;;;;;;5052777;28;20052;-72
2021/11/06 10:34:19;;;;;;;4.22;1.40;;;23.60;85.40;;;;;;5052905;28;20052;-72
2021/11/06 10:37:25;;;;;;;2.83;1.20;;;24.50;84.10;;;;;;5052592;28;20514;-73
2021/11/06 10:40:33;;;;;;;4.55;1.10;;;24.80;83.60;;;;;;5051612;28;20048;-72
2021/11/06 10:43:49;;;;;;;6.05;1.73;;;24.70;83.80;;;;;;5052366;28;20044;-72
2021/11/06 10:46:53;;;;;;;5.50;2.15;;;23.90;81.90;;;;;;5052281;28;20052;-72
2021/11/06 10:49:58;;;;;;;4.32;1.42;;;23.20;84.40;;;;;;5052004;28;20447;-72
2021/11/06 10:53:03;;;;;;;4.90;1.50;;;24.70;83.90;;;;;;5052439;28;20581;-71
2021/11/06 10:56:13;;;;;;;4.25;1.27;;;25.30;81.30;;;;;;5052157;28;20036;-72
2021/11/06 10:59:21;;;;;;;7.45;1.35;;;25.00;82.80;;;;;;5051713;28;20043;-72
2021/11/06 11:02:25;;;;;;;2.22;1.13;;;24.80;82.00;;;;;;5051756;28;20044;-72
2021/11/06 11:05:36;;;;;;;2.42;1.00;;;24.50;81.80;;;;;;5052210;28;20052;-72
2021/11/06 11:08:51;;;;;;;4.32;1.17;;;25.10;82.10;;;;;;5051716;28;20040;-72
2021/11/06 11:11:58;;;;;;;3.55;1.10;;;25.80;81.00;;;;;;5051855;28;20052;-72
2021/11/06 11:15:02;;;;;;;2.28;1.25;;;26.30;80.20;;;;;;5051780;28;20055;-73
2021/11/06 11:18:07;;;;;;;3.55;1.00;;;25.70;79.30;;;;;;5051562;28;20051;-72
2021/11/06 11:21:18;;;;;;;2.92;1.08;;;26.90;79.70;;;;;;5051555;28;20052;-72
2021/11/06 11:24:22;;;;;;;2.78;1.15;;;26.10;78.30;;;;;;5051567;28;20036;-71
2021/11/06 11:27:26;;;;;;;2.72;0.95;;;25.90;79.70;;;;;;5051596;28;20044;-72
2021/11/06 11:30:30;;;;;;;2.80;1.17;;;25.40;79.90;;;;;;5050803;28;20048;-72
2021/11/06 11:33:43;;;;;;;2.60;0.90;;;24.80;80.50;;;;;;5051508;28;20384;-73
2021/11/06 11:36:49;;;;;;;2.22;1.00;;;26.10;78.80;;;;;;5051477;28;20048;-72
2021/11/06 11:39:54;;;;;;;4.68;2.03;;;25.60;77.80;;;;;;5051245;28;20392;-73
2021/11/06 11:43:13;;;;;;;2.92;1.23;;;24.90;79.90;;;;;;5050962;28;20048;-72
2021/11/06 11:46:27;;;;;;;2.17;0.90;;;25.50;79.50;;;;;;5050927;28;20060;-72
2021/11/06 11:49:38;;;;;;;3.95;1.30;;;25.60;78.60;;;;;;5050893;28;20503;-73
2021/11/06 11:52:48;;;;;;;1.60;0.90;;;26.00;79.70;;;;;;5050839;28;20044;-74
2021/11/06 11:55:55;;;;;;;3.60;1.50;;;25.60;79.20;;;;;;5051158;28;20060;-74
2021/11/06 11:59:00;;;;;;;1.80;0.90;;;25.40;79.00;;;;;;5050642;28;20047;-73
2021/11/06 12:02:23;;;;;;;2.20;1.02;;;26.10;78.70;;;;;;5050283;28;20044;-73
2021/11/06 12:05:28;;;;;;;7.93;1.10;;;27.50;76.10;;;;;;5051089;28;20040;-73
2021/11/06 12:08:33;;;;;;;5.97;1.40;;;26.90;75.50;;;;;;5050196;28;20044;-73
2021/11/06 12:11:47;;;;;;;3.22;1.00;;;26.10;76.10;;;;;;5050723;28;20055;-73
2021/11/06 12:14:51;;;;;;;1.83;0.70;;;25.70;76.50;;;;;;5050499;28;20044;-72
2021/11/06 12:17:56;;;;;;;8.02;1.00;;;26.10;76.90;;;;;;5050632;28;20055;-71
2021/11/06 12:21:16;;;;;;;5.38;1.13;;;25.30;77.80;;;;;;5050177;28;20055;-74
2021/11/06 12:24:23;;;;;;;2.13;0.95;;;25.10;78.10;;;;;;5050621;28;20039;-73
2021/11/06 12:27:34;;;;;;;4.10;1.00;;;25.10;77.90;;;;;;5050479;28;20076;-71
2021/11/06 12:30:38;;;;;;;3.75;0.75;;;24.40;79.30;;;;;;5050618;28;20040;-72
2021/11/06 12:33:46;;;;;;;5.93;1.00;;;23.30;80.50;;;;;;5049350;28;20063;-71
2021/11/06 12:36:50;;;;;;;5.20;1.25;;;23.10;81.60;;;;;;5050769;28;20044;-71
2021/11/06 12:39:55;;;;;;;5.45;1.80;;;23.30;81.30;;;;;;5053021;28;20036;-72
2021/11/06 12:43:11;;;;;;;3.67;1.23;;;23.20;81.40;;;;;;5050018;28;20047;-72
2021/11/06 12:46:28;;;;;;;2.45;0.90;;;24.10;80.30;;;;;;5049521;28;20039;-73
2021/11/06 12:49:31;;;;;;;2.35;1.10;;;24.30;80.10;;;;;;5049991;28;20051;-73
2021/11/06 12:52:41;;;;;;;3.45;1.10;;;24.70;79.50;;;;;;5049765;28;20036;-73
2021/11/06 12:55:45;;;;;;;5.72;1.30;;;24.60;79.50;;;;;;5050451;28;20526;-72
2021/11/06 12:59:08;;;;;;;7.95;1.38;;;24.30;79.70;;;;;;5050079;28;20048;-71
2021/11/06 13:02:12;;;;;;;3.20;1.80;;;22.00;82.80;;;;;;5050472;28;20052;-73
2021/11/06 13:05:17;;;;;;;3.17;1.30;;;22.40;84.20;;;;;;5054384;28;20048;-73
2021/11/06 13:08:21;;;;;;;5.50;1.38;;;22.60;82.50;;;;;;5054322;28;20513;-71
2021/11/06 13:11:25;;;;;;;2.25;1.02;;;22.10;82.70;;;;;;5054353;28;20479;-72
2021/11/06 13:14:29;;;;;;;4.32;1.40;;;21.20;84.70;;;;;;5053119;28;20044;-72
2021/11/06 13:17:36;;;;;;;6.18;1.27;;;19.20;88.70;;;;;;5054259;28;20052;-72
2021/11/06 13:20:41;;;;;;;2.60;1.20;;;18.40;90.70;;;;;;5053824;28;20052;-73
2021/11/06 13:23:54;;;;;;;6.50;1.52;;;19.20;90.00;;;;;;5052627;28;20036;-73
2021/11/06 13:26:58;;;;;;;3.63;1.23;;;19.60;88.70;;;;;;5054313;28;20375;-71
2021/11/06 13:30:27;;;;;;;5.43;1.40;;;20.00;87.80;;;;;;5052448;28;20048;-72
2021/11/06 13:33:33;;;;;;;7.35;1.85;;;19.40;89.00;;;;;;5053623;28;20040;-71
2021/11/06 13:36:38;;;;;;;2.30;1.20;;;19.40;89.20;;;;;;5053695;28;20482;-72
2021/11/06 13:39:42;;;;;;;2.97;1.30;;;20.20;88.30;;;;;;5052982;28;20048;-73
2021/11/06 13:42:45;;;;;;;3.42;1.73;;;20.60;87.20;;;;;;5053384;28;20056;-72
2021/11/06 13:46:10;;;;;;;2.88;1.33;;;20.60;87.70;;;;;;5053541;28;20044;-72
2021/11/06 13:49:28;;;;;;;2.38;1.30;;;20.40;87.60;;;;;;5053310;28;20048;-73
2021/11/06 13:52:32;;;;;;;6.22;1.85;;;19.90;88.20;;;;;;5053517;28;20407;-72
2021/11/06 13:55:36;;;;;;;4.75;1.70;;;19.40;88.70;;;;;;5053060;28;20079;-71
2021/11/06 13:58:40;;;;;;;5.07;1.20;;;19.70;89.80;;;;;;5053169;28;20048;-73
2021/11/06 14:01:49;;;;;;;2.60;1.30;;;19.90;88.30;;;;;;5053053;28;20044;-73
2021/11/06 14:05:05;;;;;;;2.83;1.30;;;20.30;87.20;;;;;;5051839;28;20036;-72
2021/11/06 14:08:15;;;;;;;3.75;1.10;;;20.40;87.70;;;;;;5056929;28;20044;-72
2021/11/06 14:11:19;;;;;;;4.30;1.48;;;20.60;87.50;;;;;;5052957;28;20498;-73
2021/11/06 14:14:45;;;;;;;7.55;1.33;;;20.40;87.10;;;;;;5052169;28;20044;-72
2021/11/06 14:17:52;;;;;;;3.80;1.70;;;20.40;87.00;;;;;;5053100;28;20056;-71
2021/11/06 14:21:02;;;;;;;3.05;1.42;;;19.90;88.00;;;;;;5051876;28;20052;-71
2021/11/06 14:24:08;;;;;;;6.50;1.52;;;19.80;88.50;;;;;;5052867;28;20040;-73
2021/11/06 14:27:14;;;;;;;6.00;2.17;;;20.00;88.00;;;;;;5052892;28;20486;-72
2021/11/06 14:30:19;;;;;;;1.83;1.00;;;19.90;88.20;;;;;;5052533;28;20490;-72
2021/11/06 14:33:38;;;;;;;2.95;1.58;;;19.60;88.00;;;;;;5053279;28;20043;-72
2021/11/06 14:36:57;;;;;;;7.55;1.88;;;19.50;88.40;;;;;;5052443;28;20047;-72
2021/11/06 14:40:06;;;;;;;6.28;1.60;;;18.90;89.50;;;;;;5051420;28;20423;-73
2021/11/06 14:43:11;;;;;;;3.15;1.35;;;18.30;90.40;;;;;;5052503;28;20036;-72
2021/11/06 14:46:15;;;;;;;3.28;1.30;;;18.20;90.50;;;;;;5052324;28;20040;-72
2021/11/06 14:49:35;;;;;;;3.63;1.48;;;18.40;90.60;;;;;;5051907;28;20491;-73
2021/11/06 14:52:39;;;;;;;4.35;1.27;;;18.40;90.20;;;;;;5052308;28;20048;-71
2021/11/06 14:55:57;;;;;;;5.22;1.35;;;17.70;91.10;;;;;;5052352;28;20044;-72
2021/11/06 14:59:00;;;;;;;3.33;1.27;;;16.60;92.00;;;;;;5051040;28;20052;-72
2021/11/06 15:02:04;;;;;;;5.82;2.25;;;15.70;93.20;;;;;;5051677;28;20044;-72
2021/11/06 15:05:09;;;;;;;2.45;1.33;;;15.30;93.90;;;;;;5052095;28;20044;-71
2021/11/06 15:08:20;;;;;;;2.13;1.25;;;15.20;93.80;;;;;;5051686;28;20395;-71
2021/11/06 15:11:25;;;;;;;4.57;1.45;;;15.10;94.10;;;;;;5051892;28;20044;-71
2021/11/06 15:14:29;;;;;;;5.03;1.42;;;15.40;94.10;;;;;;5051108;28;20506;-72
2021/11/06 15:17:33;;;;;;;7.40;1.67;;;15.90;93.70;;;;;;5051704;28;20494;-72
2021/11/06 15:20:39;;;;;;;2.60;1.35;;;16.30;93.20;;;;;;5050738;28;20048;-72
2021/11/06 15:23:43;;;;;;;7.13;1.70;;;16.30;92.80;;;;;;5051489;28;20056;-73
2021/11/06 15:26:47;;;;;;;4.53;2.15;;;16.20;93.20;;;;;;5050696;28;20048;-71
2021/11/06 15:29:55;;;;;;;7.28;2.00;;;15.80;93.60;;;;;;5051262;28;20048;-72
2021/11/06 15:32:59;;;;;;;6.20;1.67;;;15.40;94.10;;;;;;5050851;28;20044;-71
2021/11/06 15:36:04;;;;;;;4.93;1.60;;;15.10;94.60;;;;;;5051539;28;20048;-72
2021/11/06 15:39:08;;;;;;;5.90;2.28;;;14.60;95.00;;;;;;5051073;28;20048;-71
2021/11/06 15:42:13;;;;;;;4.53;1.65;;;14.20;95.80;;;;;;5050334;28;20036;-73
2021/11/06 15:45:18;;;;;;;5.72;1.80;;;14.00;96.50;;;;;;5051356;28;20372;-72
2021/11/06 15:48:25;;;;;;;7.10;2.95;;;13.70;96.90;;;;;;5050965;28;20128;-73
2021/11/06 15:51:49;;;;;;;5.65;2.35;;;13.50;97.20;;;;;;5051170;28;20052;-72
2021/11/06 15:54:59;;;;;;;9.65;5.22;;;13.40;97.60;;;;;;5051059;28;20040;-71
2021/11/06 15:58:03;;;;;;;4.20;2.45;;;13.40;97.90;;;;;;5050945;28;20053;-71
2021/11/06 16:01:08;;;;;;;2.35;1.80;;;13.30;97.80;;;;;;5051059;28;20400;-71
2021/11/06 16:04:14;;;;;;;3.85;1.75;;;13.30;98.10;;;;;;5050742;28;20060;-71
2021/11/06 16:07:19;;;;;;;3.88;1.85;;;13.20;98.10;;;;;;5050927;28;20372;-72